Time;durP1;ratioP1;P1;durP2;ratioP2;P2;SDS_P1;SDS_P2;PMS_P1;PMS_P2;Temp;Humidity;BMP_temperature;BMP_pressure;BME280_temperature;BME280_humidity;BME280_pressure;Samples;Min_cycle;Max_cycle;Signal;HPM_P1;HPM_P2
2022/03/12 00:00:36;;;;;;;19.87;13.40;;;6.20;64.50;;;;;;10469472;28;20800;-81
2022/03/12 00:05:52;;;;;;;13.77;12.30;;;6.20;64.00;;;;;;10496138;28;20262;-82
2022/03/12 00:10:54;;;;;;;13.57;12.13;;;6.20;64.20;;;;;;10488228;28;20280;-82
2022/03/12 00:15:59;;;;;;;13.00;11.37;;;6.10;64.50;;;;;;10462241;28;20196;-84
2022/03/12 00:21:01;;;;;;;13.77;12.30;;;6.10;65.00;;;;;;10478697;28;20759;-84
2022/03/12 00:26:03;;;;;;;13.30;11.90;;;6.10;64.00;;;;;;10479293;28;20196;-82
2022/03/12 00:31:06;;;;;;;15.17;13.50;;;6.10;64.20;;;;;;10488553;28;20218;-83
2022/03/12 00:36:09;;;;;;;16.07;12.13;;;6.10;65.20;;;;;;10493825;28;20216;-82
2022/03/12 00:41:11;;;;;;;13.30;11.83;;;6.10;64.70;;;;;;10489045;28;20635;-82
2022/03/12 00:46:15;;;;;;;15.20;12.97;;;6.10;64.60;;;;;;10487844;28;20639;-83
2022/03/12 00:51:17;;;;;;;13.07;11.77;;;6.10;65.90;;;;;;10507124;28;20243;-83
2022/03/12 00:56:22;;;;;;;14.37;12.43;;;6.10;67.60;;;;;;10471538;28;20193;-82
2022/03/12 01:01:27;;;;;;;13.67;12.27;;;6.20;66.60;;;;;;10491707;28;20702;-83
2022/03/12 01:06:29;;;;;;;13.27;11.40;;;6.30;63.90;;;;;;10530980;28;20277;-83
2022/03/12 01:11:34;;;;;;;13.83;12.30;;;6.30;64.60;;;;;;10506790;28;20223;-84
2022/03/12 01:16:38;;;;;;;14.97;12.63;;;6.30;66.70;;;;;;10533275;28;20200;-84
2022/03/12 01:21:40;;;;;;;13.50;12.10;;;6.30;66.80;;;;;;10506909;28;20263;-83
2022/03/12 01:26:42;;;;;;;13.60;12.00;;;6.40;67.60;;;;;;10508282;28;20192;-83
2022/03/12 01:31:46;;;;;;;14.50;12.67;;;6.40;64.80;;;;;;10473133;28;20217;-83
2022/03/12 01:36:49;;;;;;;13.50;11.77;;;6.50;64.60;;;;;;10491772;28;20228;-83
2022/03/12 01:41:54;;;;;;;13.40;12.10;;;6.50;65.40;;;;;;10506430;28;20262;-84
2022/03/12 01:46:58;;;;;;;14.80;12.00;;;6.60;65.10;;;;;;10474170;28;20219;-84
2022/03/12 01:52:00;;;;;;;15.33;11.87;;;6.60;64.00;;;;;;10473362;28;20220;-81
2022/03/12 01:57:05;;;;;;;16.53;12.17;;;6.70;64.30;;;;;;10482113;28;20173;-82
2022/03/12 02:02:13;;;;;;;18.63;11.93;;;6.70;62.10;;;;;;10476426;28;20250;-81
2022/03/12 02:07:16;;;;;;;13.67;12.00;;;6.80;62.80;;;;;;10498238;28;20189;-83
2022/03/12 02:12:18;;;;;;;14.30;12.07;;;6.80;63.10;;;;;;10515701;28;20696;-86
2022/03/12 02:17:22;;;;;;;12.83;10.90;;;6.90;60.30;;;;;;10522499;28;20200;-81
2022/03/12 02:22:27;;;;;;;12.80;11.07;;;6.90;61.90;;;;;;10498831;28;20217;-85
2022/03/12 02:27:31;;;;;;;13.13;10.40;;;6.90;61.60;;;;;;10475620;28;20216;-83
2022/03/12 02:32:33;;;;;;;11.43;10.23;;;7.00;62.20;;;;;;10492930;28;20224;-85
2022/03/12 02:37:35;;;;;;;11.27;10.17;;;7.10;62.00;;;;;;10484827;28;20716;-83
2022/03/12 02:42:39;;;;;;;12.07;10.90;;;7.10;62.20;;;;;;10498693;28;20208;-82
2022/03/12 02:47:44;;;;;;;12.53;11.30;;;7.20;58.90;;;;;;10467602;28;20683;-81
2022/03/12 02:52:47;;;;;;;13.73;12.33;;;7.20;61.40;;;;;;10467285;28;20278;-82
2022/03/12 02:57:51;;;;;;;11.73;10.50;;;7.20;61.30;;;;;;10487054;28;20197;-83
2022/03/12 03:02:54;;;;;;;13.20;11.10;;;7.20;61.40;;;;;;10514329;28;20692;-82
2022/03/12 03:07:57;;;;;;;11.83;10.63;;;7.20;61.90;;;;;;10509648;28;20200;-83
2022/03/12 03:13:05;;;;;;;17.60;11.50;;;7.00;61.50;;;;;;10501827;28;20574;-82
2022/03/12 03:18:10;;;;;;;12.27;10.40;;;6.90;62.90;;;;;;10489005;28;20197;-83
2022/03/12 03:23:13;;;;;;;11.43;10.40;;;6.80;63.00;;;;;;10487099;28;20217;-84
2022/03/12 03:28:16;;;;;;;11.93;10.83;;;6.70;62.90;;;;;;10487331;28;20208;-82
2022/03/12 03:33:20;;;;;;;13.17;11.73;;;6.70;62.80;;;;;;10470635;28;20219;-84
2022/03/12 03:38:22;;;;;;;12.43;11.13;;;6.60;63.40;;;;;;10469069;28;20192;-83
2022/03/12 03:43:26;;;;;;;16.40;11.43;;;6.50;62.30;;;;;;10467958;28;20270;-83
2022/03/12 03:48:28;;;;;;;11.83;10.63;;;6.50;61.90;;;;;;10485108;28;20212;-84
2022/03/12 03:53:31;;;;;;;13.13;11.07;;;6.50;63.20;;;;;;10493326;28;20224;-82
2022/03/12 03:58:37;;;;;;;12.40;11.10;;;6.50;61.50;;;;;;10481824;28;20338;-85
2022/03/12 04:03:48;;;;;;;13.50;11.57;;;6.50;62.00;;;;;;10488973;28;20199;-85
2022/03/12 04:08:50;;;;;;;12.33;11.13;;;6.50;64.00;;;;;;10514221;28;20211;-83
2022/03/12 04:13:54;;;;;;;12.13;10.93;;;6.60;61.40;;;;;;10498214;28;20206;-84
2022/03/12 04:19:03;;;;;;;12.90;11.57;;;6.60;61.80;;;;;;10484633;28;20217;-85
2022/03/12 04:24:06;;;;;;;12.40;11.20;;;6.50;62.80;;;;;;10503723;28;20224;-84
2022/03/12 04:29:11;;;;;;;11.87;10.63;;;6.40;64.30;;;;;;10507308;28;20632;-82
2022/03/12 04:34:13;;;;;;;12.07;10.07;;;6.40;63.50;;;;;;10493599;28;20276;-82
2022/03/12 04:39:16;;;;;;;12.20;11.00;;;6.30;62.90;;;;;;10474662;28;20222;-82
2022/03/12 04:44:20;;;;;;;13.23;11.87;;;6.10;62.50;;;;;;10507824;28;20188;-82
2022/03/12 04:49:22;;;;;;;12.53;11.23;;;6.00;64.50;;;;;;10470459;28;20232;-82
2022/03/12 04:54:31;;;;;;;12.07;10.77;;;5.90;64.20;;;;;;10488143;28;20906;-83
2022/03/12 04:59:35;;;;;;;12.53;11.03;;;5.90;64.50;;;;;;10506697;28;20299;-83
2022/03/12 05:04:37;;;;;;;12.33;11.07;;;5.90;64.30;;;;;;10481973;28;20228;-82
2022/03/12 05:09:40;;;;;;;14.60;12.30;;;5.90;64.60;;;;;;10480290;28;20231;-82
2022/03/12 05:14:44;;;;;;;11.70;10.60;;;6.00;64.80;;;;;;10515685;28;20196;-83
2022/03/12 05:19:46;;;;;;;16.30;10.33;;;6.00;65.80;;;;;;10497352;28;20215;-82
2022/03/12 05:24:49;;;;;;;14.00;10.70;;;6.20;64.60;;;;;;10529087;28;20192;-81
2022/03/12 05:29:54;;;;;;;12.57;11.33;;;6.30;64.30;;;;;;10490857;28;20220;-81
2022/03/12 05:34:56;;;;;;;11.73;10.57;;;6.40;63.30;;;;;;10470451;28;20188;-84
2022/03/12 05:39:58;;;;;;;11.50;10.30;;;6.60;62.40;;;;;;10473888;28;20748;-82
2022/03/12 05:45:02;;;;;;;12.80;11.50;;;6.60;63.70;;;;;;10499042;28;20207;-82
2022/03/12 05:50:09;;;;;;;12.20;10.90;;;6.60;64.80;;;;;;10487484;28;20220;-83
2022/03/12 05:55:11;;;;;;;13.57;10.60;;;6.70;64.30;;;;;;10495253;28;20206;-81
2022/03/12 06:00:16;;;;;;;12.73;11.47;;;6.60;63.10;;;;;;10519101;28;20205;-83
2022/03/12 06:05:20;;;;;;;10.80;9.70;;;6.60;62.60;;;;;;10495706;28;20187;-84
2022/03/12 06:10:24;;;;;;;10.40;9.27;;;6.60;60.30;;;;;;10491623;28;20308;-84
2022/03/12 06:15:30;;;;;;;11.57;10.10;;;6.60;58.30;;;;;;10485066;28;20204;-85
2022/03/12 06:20:37;;;;;;;13.67;9.73;;;6.50;56.20;;;;;;10477559;28;20219;-85
2022/03/12 06:25:39;;;;;;;12.17;9.57;;;6.60;58.10;;;;;;10492146;28;20189;-84
2022/03/12 06:30:43;;;;;;;11.33;10.20;;;6.50;58.30;;;;;;10487305;28;20227;-82
2022/03/12 06:35:46;;;;;;;12.77;10.60;;;6.60;59.20;;;;;;10488219;28;20196;-83
2022/03/12 06:40:49;;;;;;;14.33;10.67;;;6.70;60.10;;;;;;10479333;28;20216;-83
2022/03/12 06:45:53;;;;;;;14.80;12.30;;;6.70;58.10;;;;;;10479101;28;20190;-83
2022/03/12 06:50:56;;;;;;;13.40;11.13;;;6.80;59.80;;;;;;10486344;28;20690;-83
2022/03/12 06:55:59;;;;;;;12.93;10.13;;;6.80;60.60;;;;;;10494418;28;20658;-83
2022/03/12 07:01:03;;;;;;;12.23;10.60;;;7.00;60.90;;;;;;10489159;28;20240;-82
2022/03/12 07:06:06;;;;;;;11.27;9.60;;;7.00;59.30;;;;;;10468158;28;20657;-83
2022/03/12 07:11:11;;;;;;;13.60;10.40;;;7.10;59.90;;;;;;10487315;28;20573;-84
2022/03/12 07:16:14;;;;;;;13.03;11.63;;;7.20;60.50;;;;;;10495387;28;20192;-83
2022/03/12 07:21:16;;;;;;;12.83;11.40;;;7.20;61.30;;;;;;10490825;28;20209;-82
2022/03/12 07:26:20;;;;;;;12.40;10.60;;;7.30;60.00;;;;;;10476980;28;20220;-83
2022/03/12 07:31:24;;;;;;;13.27;10.70;;;7.40;61.30;;;;;;10495904;28;20224;-83
2022/03/12 07:36:26;;;;;;;12.00;10.63;;;7.40;61.90;;;;;;10479759;28;20271;-83
2022/03/12 07:41:29;;;;;;;13.57;11.87;;;7.50;61.60;;;;;;10471797;28;20903;-84
2022/03/12 07:46:32;;;;;;;12.40;11.07;;;7.60;61.10;;;;;;10487703;28;20283;-82
2022/03/12 07:51:35;;;;;;;12.90;11.07;;;7.70;61.70;;;;;;10507287;28;20219;-83
2022/03/12 07:56:38;;;;;;;12.63;11.20;;;7.80;62.50;;;;;;10508967;28;20682;-82
2022/03/12 08:01:42;;;;;;;12.97;11.53;;;7.90;62.50;;;;;;10498977;28;20297;-84
2022/03/12 08:06:44;;;;;;;14.03;11.20;;;8.00;61.80;;;;;;10469530;28;20279;-82
2022/03/12 08:11:47;;;;;;;15.30;11.73;;;8.10;60.60;;;;;;10471645;28;20220;-82
2022/03/12 08:16:52;;;;;;;14.60;11.37;;;8.20;61.20;;;;;;10491308;28;20675;-83
2022/03/12 08:21:56;;;;;;;13.80;11.30;;;8.30;61.00;;;;;;10491878;28;20230;-85
2022/03/12 08:26:59;;;;;;;12.70;11.40;;;8.40;61.50;;;;;;10475671;28;20196;-85
2022/03/12 08:32:07;;;;;;;13.93;12.37;;;8.60;61.40;;;;;;10489423;28;20224;-85
2022/03/12 08:37:09;;;;;;;11.93;10.57;;;8.70;62.00;;;;;;10487860;28;20201;-86
2022/03/12 08:42:12;;;;;;;16.30;12.20;;;8.90;62.10;;;;;;10495340;28;20213;-84
2022/03/12 08:47:15;;;;;;;13.13;11.67;;;9.10;62.50;;;;;;10509382;28;20200;-84
2022/03/12 08:52:17;;;;;;;12.40;11.17;;;9.30;59.90;;;;;;10505134;28;20212;-84
2022/03/12 08:57:19;;;;;;;19.23;12.83;;;9.50;60.60;;;;;;10507868;28;20200;-84
2022/03/12 09:02:24;;;;;;;13.97;11.20;;;9.70;59.10;;;;;;10509898;28;20767;-84
2022/03/12 09:07:26;;;;;;;12.73;10.90;;;9.80;60.90;;;;;;10476559;28;20250;-84
2022/03/12 09:12:28;;;;;;;14.20;12.57;;;10.00;57.60;;;;;;10534544;28;20239;-84
2022/03/12 09:17:31;;;;;;;13.40;12.07;;;10.10;58.40;;;;;;10485306;28;20192;-84
2022/03/12 09:22:34;;;;;;;14.50;13.00;;;10.30;56.80;;;;;;10465610;28;20244;-85
2022/03/12 09:27:36;;;;;;;16.10;13.30;;;10.40;58.30;;;;;;10510991;28;20227;-85
2022/03/12 09:32:40;;;;;;;13.73;11.60;;;10.50;58.10;;;;;;10489945;28;20756;-84
2022/03/12 09:37:42;;;;;;;17.27;13.20;;;10.70;55.60;;;;;;10482653;28;20195;-85
2022/03/12 09:42:44;;;;;;;15.30;12.87;;;10.90;55.40;;;;;;10539491;28;20683;-85
2022/03/12 09:47:48;;;;;;;13.57;12.10;;;11.00;56.70;;;;;;10484221;28;20200;-84
2022/03/12 09:52:51;;;;;;;13.50;12.10;;;11.30;57.30;;;;;;10475143;28;20229;-85
2022/03/12 09:57:53;;;;;;;13.73;12.30;;;11.50;57.10;;;;;;10515930;28;20192;-84
2022/03/12 10:02:57;;;;;;;14.67;12.60;;;11.70;55.90;;;;;;10491568;28;20241;-84
2022/03/12 10:07:59;;;;;;;15.10;13.50;;;11.80;57.00;;;;;;10480720;28;20203;-85
2022/03/12 10:13:01;;;;;;;14.30;12.70;;;11.90;57.50;;;;;;10522519;28;20292;-84
2022/03/12 10:18:05;;;;;;;18.50;13.53;;;12.00;56.50;;;;;;10497245;28;20270;-84
2022/03/12 10:23:10;;;;;;;15.40;13.90;;;11.90;56.30;;;;;;10508216;28;20221;-85
2022/03/12 10:28:14;;;;;;;16.37;13.53;;;11.90;55.90;;;;;;10488732;28;20681;-84
2022/03/12 10:33:24;;;;;;;18.30;14.37;;;11.80;55.00;;;;;;10478813;28;21379;-85
2022/03/12 10:38:26;;;;;;;17.40;13.10;;;11.80;55.10;;;;;;10464121;28;20197;-83
2022/03/12 10:43:34;;;;;;;16.57;14.30;;;11.80;54.80;;;;;;10460544;28;20287;-84
2022/03/12 10:48:40;;;;;;;13.83;12.40;;;11.80;56.00;;;;;;10472260;28;20192;-84
2022/03/12 10:53:44;;;;;;;18.83;14.43;;;11.80;57.90;;;;;;10459528;28;20221;-82
2022/03/12 10:58:46;;;;;;;15.17;12.93;;;11.80;57.10;;;;;;10477486;28;20199;-84
2022/03/12 11:03:50;;;;;;;15.70;13.50;;;11.90;57.10;;;;;;10470378;28;20195;-85
2022/03/12 11:08:53;;;;;;;17.10;14.20;;;11.90;57.80;;;;;;10513355;28;20215;-83
2022/03/12 11:14:01;;;;;;;15.67;13.70;;;12.00;56.50;;;;;;10480978;28;20262;-83
2022/03/12 11:19:09;;;;;;;15.43;13.43;;;12.00;58.20;;;;;;10502325;28;20239;-83
2022/03/12 11:24:16;;;;;;;17.37;13.97;;;12.00;58.60;;;;;;10536550;28;20697;-83
2022/03/12 11:29:20;;;;;;;19.20;15.20;;;12.00;58.10;;;;;;10496514;28;20621;-82
2022/03/12 11:34:31;;;;;;;16.00;13.07;;;12.00;57.70;;;;;;10475093;28;20216;-81
2022/03/12 11:39:36;;;;;;;15.47;13.90;;;12.00;59.60;;;;;;10495169;28;20233;-82
2022/03/12 11:44:44;;;;;;;12.83;11.53;;;12.00;59.60;;;;;;10504717;28;20208;-82
2022/03/12 11:49:52;;;;;;;13.73;12.03;;;12.10;60.50;;;;;;10468039;28;20248;-83
2022/03/12 11:54:56;;;;;;;14.40;12.40;;;12.10;61.20;;;;;;10491635;28;20579;-82
2022/03/12 11:59:59;;;;;;;13.10;11.70;;;12.10;59.90;;;;;;10484563;28;20497;-82
2022/03/12 12:05:06;;;;;;;13.17;11.77;;;12.20;60.40;;;;;;10505604;28;20205;-82
2022/03/12 12:10:10;;;;;;;13.37;11.67;;;12.20;60.70;;;;;;10481403;28;20239;-82
2022/03/12 12:15:17;;;;;;;13.73;10.73;;;12.30;61.80;;;;;;10487388;28;20225;-82
2022/03/12 12:20:22;;;;;;;16.83;11.80;;;12.30;62.50;;;;;;10496067;28;20232;-82
2022/03/12 12:25:25;;;;;;;11.40;10.27;;;12.30;60.80;;;;;;10475103;28;20219;-84
2022/03/12 12:30:39;;;;;;;12.13;10.93;;;12.30;61.90;;;;;;10514877;28;20216;-82
2022/03/12 12:35:44;;;;;;;12.70;11.47;;;12.40;61.00;;;;;;10534399;28;20204;-84
2022/03/12 12:40:48;;;;;;;13.40;12.00;;;12.40;62.80;;;;;;10500334;28;20209;-83
2022/03/12 12:46:09;;;;;;;12.07;10.87;;;12.50;62.00;;;;;;10505989;28;20250;-82
2022/03/12 12:51:16;;;;;;;14.10;12.13;;;12.50;62.60;;;;;;10499270;28;20219;-83
2022/03/12 12:56:27;;;;;;;15.10;12.43;;;12.50;62.40;;;;;;10503078;28;20204;-83
2022/03/12 13:01:34;;;;;;;11.70;10.60;;;12.40;63.30;;;;;;10487796;28;20231;-83
2022/03/12 13:06:46;;;;;;;12.83;11.43;;;12.50;62.80;;;;;;10470704;28;20203;-84
2022/03/12 13:11:54;;;;;;;13.20;11.90;;;12.60;62.60;;;;;;10494242;28;20224;-85
2022/03/12 13:16:57;;;;;;;18.90;12.73;;;12.70;62.30;;;;;;10481899;28;20203;-85
2022/03/12 13:22:03;;;;;;;12.40;11.10;;;12.70;63.20;;;;;;10501290;28;20284;-85
2022/03/12 13:27:17;;;;;;;11.30;10.20;;;12.80;63.20;;;;;;10493567;28;20203;-84
2022/03/12 13:32:23;;;;;;;11.40;10.30;;;12.70;63.80;;;;;;10491945;28;20247;-84
2022/03/12 13:37:27;;;;;;;11.50;10.43;;;12.70;64.60;;;;;;10485529;28;20191;-84
2022/03/12 13:42:29;;;;;;;11.60;10.40;;;12.70;67.20;;;;;;10512274;28;20817;-84
2022/03/12 13:47:31;;;;;;;12.50;11.20;;;12.70;64.20;;;;;;10503033;28;20196;-83
2022/03/12 13:52:35;;;;;;;9.37;8.47;;;12.70;67.00;;;;;;10467292;28;20220;-84
2022/03/12 13:57:38;;;;;;;9.30;8.40;;;12.70;66.40;;;;;;10483851;28;20840;-86
2022/03/12 14:02:47;;;;;;;11.00;9.83;;;12.70;66.50;;;;;;10484755;28;20220;-82
2022/03/12 14:07:51;;;;;;;10.03;9.03;;;12.80;66.60;;;;;;10468488;28;20196;-83
2022/03/12 14:12:59;;;;;;;9.63;8.73;;;12.80;66.40;;;;;;10468182;28;20217;-82
2022/03/12 14:18:05;;;;;;;9.83;8.73;;;12.90;66.30;;;;;;10468365;28;20204;-82
2022/03/12 14:23:09;;;;;;;9.70;8.60;;;12.90;67.00;;;;;;10484847;28;20216;-85
2022/03/12 14:28:11;;;;;;;9.27;8.30;;;12.90;67.00;;;;;;10484686;28;20199;-83
2022/03/12 14:33:15;;;;;;;9.60;8.60;;;13.00;66.10;;;;;;10467324;28;20228;-83
2022/03/12 14:38:18;;;;;;;10.73;8.90;;;13.00;66.40;;;;;;10488017;28;20326;-82
2022/03/12 14:43:20;;;;;;;9.63;8.63;;;13.00;66.40;;;;;;10461368;28;20212;-83
2022/03/12 14:48:23;;;;;;;12.40;9.80;;;13.00;67.10;;;;;;10502043;28;20196;-84
2022/03/12 14:53:27;;;;;;;8.70;7.90;;;13.00;67.00;;;;;;10451277;28;20646;-85
2022/03/12 14:58:31;;;;;;;8.67;7.83;;;13.00;66.80;;;;;;10440748;28;20205;-84
2022/03/12 15:03:43;;;;;;;11.00;8.10;;;13.10;65.00;;;;;;10457095;28;20201;-84
2022/03/12 15:08:49;;;;;;;9.97;9.00;;;13.20;66.90;;;;;;10437848;28;20231;-86
2022/03/12 15:13:54;;;;;;;9.80;8.07;;;13.20;66.60;;;;;;10459179;28;20791;-85
2022/03/12 15:19:01;;;;;;;8.90;8.00;;;13.20;67.30;;;;;;10458390;28;20197;-84
2022/03/12 15:24:17;;;;;;;10.67;9.40;;;13.10;68.40;;;;;;10460991;28;20192;-85
2022/03/12 15:29:27;;;;;;;9.50;8.43;;;13.10;67.90;;;;;;10461024;28;20223;-83
2022/03/12 15:34:34;;;;;;;9.23;8.43;;;13.10;66.90;;;;;;10456337;28;20608;-85
2022/03/12 15:39:37;;;;;;;12.93;8.60;;;13.10;66.20;;;;;;10455272;28;20708;-84
2022/03/12 15:44:40;;;;;;;10.77;9.67;;;13.10;66.50;;;;;;10455827;28;20200;-84
2022/03/12 15:49:42;;;;;;;12.80;8.40;;;13.10;67.50;;;;;;10486815;28;20258;-85
2022/03/12 15:54:54;;;;;;;10.20;9.20;;;13.10;66.80;;;;;;10506591;28;20720;-85
2022/03/12 15:59:56;;;;;;;9.47;8.57;;;13.10;67.40;;;;;;10492747;28;20224;-84
2022/03/12 16:04:58;;;;;;;11.00;9.83;;;13.10;67.00;;;;;;10485843;28;20204;-84
2022/03/12 16:10:02;;;;;;;12.10;8.13;;;13.00;66.00;;;;;;10465808;28;20319;-84
2022/03/12 16:15:09;;;;;;;11.20;9.77;;;12.90;69.10;;;;;;10481211;28;20315;-84
2022/03/12 16:20:15;;;;;;;14.77;9.10;;;12.80;68.30;;;;;;10482572;28;20224;-84
2022/03/12 16:25:20;;;;;;;11.00;10.00;;;12.80;66.30;;;;;;10490557;28;20185;-84
2022/03/12 16:30:26;;;;;;;9.80;8.80;;;12.70;66.80;;;;;;10476384;28;20242;-85
2022/03/12 16:35:29;;;;;;;12.60;11.30;;;12.70;67.30;;;;;;10477984;28;20284;-85
2022/03/12 16:40:34;;;;;;;12.43;10.13;;;12.70;68.50;;;;;;10475728;28;20224;-85
2022/03/12 16:45:39;;;;;;;11.20;10.00;;;12.60;70.20;;;;;;10518168;28;20196;-85
2022/03/12 16:50:41;;;;;;;11.37;10.27;;;12.50;71.70;;;;;;10500551;28;20289;-85
2022/03/12 16:55:45;;;;;;;10.40;9.37;;;12.30;71.50;;;;;;10526044;28;20196;-84
2022/03/12 17:00:47;;;;;;;13.43;10.70;;;12.20;72.40;;;;;;10486358;28;20223;-83
2022/03/12 17:06:00;;;;;;;11.50;10.17;;;12.10;68.60;;;;;;10481014;28;20227;-85
2022/03/12 17:11:19;;;;;;;13.90;12.43;;;12.10;71.00;;;;;;10491401;28;20578;-85
2022/03/12 17:16:22;;;;;;;11.30;10.10;;;12.00;70.80;;;;;;10488028;28;20199;-85
2022/03/12 17:21:24;;;;;;;10.97;9.87;;;11.90;71.00;;;;;;10502298;28;20857;-85
2022/03/12 17:26:28;;;;;;;15.30;10.60;;;11.90;70.60;;;;;;10487472;28;20203;-85
2022/03/12 17:31:30;;;;;;;11.63;10.47;;;11.80;70.60;;;;;;10477415;28;20244;-85
2022/03/12 17:36:32;;;;;;;13.43;10.53;;;11.80;70.00;;;;;;10469753;28;20223;-86
2022/03/12 17:41:36;;;;;;;15.57;11.63;;;11.70;69.60;;;;;;10480732;28;20737;-86
2022/03/12 17:46:38;;;;;;;11.77;10.40;;;11.70;69.40;;;;;;10480635;28;20204;-85
2022/03/12 17:51:44;;;;;;;14.67;13.13;;;11.60;70.20;;;;;;10501969;28;20213;-85
2022/03/12 17:56:50;;;;;;;15.30;12.77;;;11.50;70.50;;;;;;10521911;28;20200;-86
2022/03/12 18:01:52;;;;;;;14.30;13.00;;;11.40;70.40;;;;;;10504992;28;20215;-84
2022/03/12 18:06:55;;;;;;;14.17;12.77;;;11.30;70.60;;;;;;10492937;28;20199;-84
2022/03/12 18:11:58;;;;;;;14.63;13.23;;;11.10;70.60;;;;;;10476996;28;20224;-83
2022/03/12 18:17:00;;;;;;;15.47;13.90;;;11.10;70.50;;;;;;10496840;28;20288;-84
2022/03/12 18:22:05;;;;;;;19.03;14.10;;;10.90;70.30;;;;;;10485595;28;20246;-83
2022/03/12 18:27:21;;;;;;;15.03;13.47;;;10.80;70.30;;;;;;10467944;28;20196;-84
2022/03/12 18:32:29;;;;;;;21.00;15.97;;;10.70;71.60;;;;;;10469319;28;20216;-84
2022/03/12 18:37:31;;;;;;;13.97;12.37;;;10.60;70.60;;;;;;10469871;28;20200;-83
2022/03/12 18:42:36;;;;;;;16.50;14.73;;;10.50;71.10;;;;;;10489021;28;20209;-84
2022/03/12 18:47:38;;;;;;;17.00;15.20;;;10.50;71.60;;;;;;10491414;28;20227;-84
2022/03/12 18:52:46;;;;;;;16.83;15.10;;;10.50;72.50;;;;;;10480828;28;20321;-85
2022/03/12 18:57:52;;;;;;;15.77;13.87;;;10.40;71.50;;;;;;10479423;28;20219;-83
2022/03/12 19:02:54;;;;;;;17.93;14.63;;;10.40;69.80;;;;;;10456545;28;20213;-83
2022/03/12 19:07:56;;;;;;;14.77;13.30;;;10.40;69.20;;;;;;10459132;28;20227;-83
2022/03/12 19:13:03;;;;;;;16.13;14.23;;;10.20;68.80;;;;;;10472333;28;20220;-83
2022/03/12 19:18:05;;;;;;;15.70;14.10;;;10.10;69.50;;;;;;10484296;28;20201;-82
2022/03/12 19:23:08;;;;;;;16.60;14.77;;;9.90;69.70;;;;;;10467844;28;20231;-83
2022/03/12 19:28:11;;;;;;;16.20;13.67;;;9.80;70.20;;;;;;10461828;28;20210;-83
2022/03/12 19:33:17;;;;;;;16.20;14.50;;;9.70;69.20;;;;;;10491479;28;20278;-83
2022/03/12 19:38:19;;;;;;;17.67;13.93;;;9.60;70.10;;;;;;10471959;28;20239;-84
2022/03/12 19:43:23;;;;;;;17.93;14.43;;;9.50;69.50;;;;;;10485649;28;20221;-84
2022/03/12 19:48:25;;;;;;;16.83;14.80;;;9.40;70.30;;;;;;10502555;28;20200;-84
2022/03/12 19:53:27;;;;;;;15.93;14.23;;;9.30;69.40;;;;;;10503773;28;20288;-83
2022/03/12 19:58:31;;;;;;;18.70;16.17;;;9.30;69.40;;;;;;10508549;28;20199;-84
2022/03/12 20:03:37;;;;;;;20.87;16.50;;;9.10;68.90;;;;;;10523564;28;20222;-84
2022/03/12 20:08:40;;;;;;;20.27;18.00;;;9.10;69.00;;;;;;10489050;28;20193;-84
2022/03/12 20:13:46;;;;;;;23.00;18.53;;;8.90;70.00;;;;;;10508494;28;20291;-84
2022/03/12 20:18:50;;;;;;;21.60;18.03;;;8.80;69.80;;;;;;10484038;28;20669;-83
2022/03/12 20:23:53;;;;;;;20.07;17.87;;;8.80;70.00;;;;;;10474772;28;20287;-84
2022/03/12 20:28:57;;;;;;;23.57;18.13;;;8.70;69.20;;;;;;10494480;28;20220;-84
2022/03/12 20:33:59;;;;;;;21.33;19.03;;;8.60;68.30;;;;;;10494904;28;20250;-84
2022/03/12 20:39:02;;;;;;;22.77;20.17;;;8.50;68.10;;;;;;10503764;28;20240;-83
2022/03/12 20:44:07;;;;;;;21.37;18.97;;;8.40;68.30;;;;;;10486281;28;20231;-84
2022/03/12 20:49:09;;;;;;;22.70;20.33;;;8.40;68.10;;;;;;10489788;28;20220;-84
2022/03/12 20:54:11;;;;;;;22.47;20.00;;;8.40;68.50;;;;;;10488869;28;20524;-84
2022/03/12 20:59:15;;;;;;;21.83;19.17;;;8.30;68.10;;;;;;10522805;28;20216;-84
2022/03/12 21:04:21;;;;;;;24.33;19.67;;;8.20;68.30;;;;;;10486942;28;20692;-84
2022/03/12 21:09:23;;;;;;;23.10;20.07;;;8.20;68.70;;;;;;10492659;28;20315;-84
2022/03/12 21:14:27;;;;;;;26.07;19.40;;;8.20;68.90;;;;;;10491465;28;20224;-84
2022/03/12 21:19:30;;;;;;;23.23;19.67;;;8.10;67.90;;;;;;10476941;28;20217;-84
2022/03/12 21:24:32;;;;;;;20.43;18.23;;;8.10;66.90;;;;;;10486062;28;20221;-84
2022/03/12 21:29:36;;;;;;;21.07;18.80;;;8.00;67.60;;;;;;10472611;28;20546;-84
2022/03/12 21:34:43;;;;;;;20.37;18.00;;;7.90;67.20;;;;;;10479742;28;20220;-84
2022/03/12 21:39:49;;;;;;;21.13;18.10;;;7.80;67.30;;;;;;10471907;28;20770;-83
2022/03/12 21:44:55;;;;;;;21.67;18.63;;;7.80;67.40;;;;;;10502336;28;20288;-83
2022/03/12 21:49:58;;;;;;;26.87;18.50;;;7.70;67.60;;;;;;10481392;28;20274;-82
2022/03/12 21:55:00;;;;;;;24.13;19.27;;;7.60;68.70;;;;;;10501792;28;20223;-83
2022/03/12 22:00:05;;;;;;;25.40;19.50;;;7.60;69.40;;;;;;10501840;28;20229;-84
2022/03/12 22:05:19;;;;;;;23.03;18.67;;;7.60;68.70;;;;;;10494600;28;20550;-81
2022/03/12 22:10:23;;;;;;;22.57;19.40;;;7.50;68.20;;;;;;10488463;28;20216;-85
2022/03/12 22:15:28;;;;;;;21.23;17.97;;;7.50;68.60;;;;;;10466719;28;20228;-83
2022/03/12 22:20:31;;;;;;;22.07;18.20;;;7.50;68.00;;;;;;10503780;28;20213;-85
2022/03/12 22:25:35;;;;;;;22.37;17.23;;;7.40;69.70;;;;;;10461669;28;20196;-84
2022/03/12 22:30:40;;;;;;;20.93;17.73;;;7.30;69.30;;;;;;10479893;28;20567;-83
2022/03/12 22:35:42;;;;;;;24.37;18.07;;;7.40;68.70;;;;;;10462286;28;20224;-84
2022/03/12 22:40:50;;;;;;;24.27;18.47;;;7.30;68.30;;;;;;10482683;28;20567;-84
2022/03/12 22:45:57;;;;;;;23.40;17.03;;;7.30;67.50;;;;;;10471709;28;20207;-84
2022/03/12 22:50:59;;;;;;;21.03;18.00;;;7.20;67.00;;;;;;10469400;28;20228;-82
2022/03/12 22:56:01;;;;;;;20.97;18.60;;;7.10;67.90;;;;;;10463403;28;20303;-84
2022/03/12 23:12:27;;;;;;;23.40;18.07;;;7.00;69.40;;;;;;10488488;28;20312;-85
2022/03/12 23:17:36;;;;;;;22.63;19.20;;;7.00;69.20;;;;;;10517325;28;20683;-87
2022/03/12 23:22:40;;;;;;;21.37;18.67;;;6.90;68.90;;;;;;10503346;28;20208;-83
2022/03/12 23:27:43;;;;;;;24.33;20.27;;;6.90;70.80;;;;;;10482722;28;20199;-84
2022/03/12 23:32:46;;;;;;;24.90;18.27;;;6.90;70.60;;;;;;10472235;28;20225;-84
2022/03/12 23:37:50;;;;;;;32.30;19.50;;;6.90;70.00;;;;;;10464497;28;20204;-83
2022/03/12 23:42:53;;;;;;;22.97;18.23;;;7.00;69.70;;;;;;10498084;28;20278;-83
2022/03/12 23:48:06;;;;;;;20.40;17.20;;;6.80;71.00;;;;;;10482871;28;20595;-84
2022/03/12 23:53:12;;;;;;;21.77;17.17;;;6.80;69.70;;;;;;10493660;28;20605;-83
2022/03/12 23:58:17;;;;;;;20.70;16.90;;;6.80;69.80;;;;;;10484869;28;20212;-83
